Time;durP1;ratioP1;P1;durP2;ratioP2;P2;SDS_P1;SDS_P2;PMS_P1;PMS_P2;Temp;Humidity;BMP_temperature;BMP_pressure;BME280_temperature;BME280_humidity;BME280_pressure;Samples;Min_cycle;Max_cycle;Signal;HPM_P1;HPM_P2
2022/06/12 00:02:11;;;;;;;10.65;5.82;;;;;;;14.14;100.00;100230.69;5083558;28;20036;-51
2022/06/12 00:04:56;;;;;;;6.85;5.57;;;;;;;14.17;100.00;100234.06;5081959;28;20040;-54
2022/06/12 00:07:41;;;;;;;8.52;5.47;;;;;;;14.10;100.00;100234.31;5083119;28;20041;-54
2022/06/12 00:10:25;;;;;;;9.98;5.43;;;;;;;14.02;100.00;100235.44;5085316;28;20059;-54
2022/06/12 00:13:13;;;;;;;9.77;6.70;;;;;;;14.06;100.00;100225.66;5082620;28;20036;-53
2022/06/12 00:15:58;;;;;;;10.07;7.10;;;;;;;14.20;100.00;100230.44;5081555;28;20059;-54
2022/06/12 00:18:43;;;;;;;11.23;8.02;;;;;;;14.30;100.00;100228.38;5082995;28;20093;-51
2022/06/12 00:21:31;;;;;;;15.02;9.60;;;;;;;14.29;100.00;100227.50;5081586;28;20189;-54
2022/06/12 00:24:19;;;;;;;10.63;8.10;;;;;;;14.34;100.00;100228.25;5082950;28;20064;-52
2022/06/12 00:27:04;;;;;;;10.77;7.82;;;;;;;14.35;100.00;100226.47;5081662;28;20117;-51
2022/06/12 00:29:50;;;;;;;9.48;6.28;;;;;;;14.23;100.00;100218.06;5080228;28;20055;-52
2022/06/12 00:32:35;;;;;;;9.45;5.80;;;;;;;14.33;100.00;100221.25;5081664;28;20077;-54
2022/06/12 00:35:26;;;;;;;6.65;5.40;;;;;;;14.35;100.00;100219.41;5081848;28;20059;-54
2022/06/12 00:38:11;;;;;;;5.93;5.20;;;;;;;14.39;100.00;100225.44;5083456;28;20075;-53
2022/06/12 00:40:55;;;;;;;7.43;5.20;;;;;;;14.45;100.00;100223.44;5079438;28;20044;-51
2022/06/12 00:43:40;;;;;;;7.97;5.68;;;;;;;14.39;100.00;100225.44;5082582;28;20097;-53
2022/06/12 00:46:40;;;;;;;7.20;5.25;;;;;;;14.44;100.00;100215.59;5081144;28;20524;-52
2022/06/12 00:49:33;;;;;;;7.38;5.13;;;;;;;14.44;100.00;100221.72;5081457;28;20046;-54
2022/06/12 00:52:33;;;;;;;6.90;5.22;;;;;;;14.40;100.00;100219.28;5081694;28;20509;-54
2022/06/12 00:55:24;;;;;;;10.45;4.90;;;;;;;14.47;100.00;100216.34;5082695;28;20047;-52
2022/06/12 00:58:20;;;;;;;5.80;4.82;;;;;;;14.45;100.00;100210.28;5080429;28;20658;-53
2022/06/12 01:01:10;;;;;;;6.68;5.13;;;;;;;14.49;100.00;100216.28;5082863;28;20052;-51
2022/06/12 01:07:03;;;;;;;10.20;5.05;;;;;;;14.35;100.00;100205.38;5082967;28;20113;-52
2022/06/12 01:09:52;;;;;;;7.38;5.07;;;;;;;14.38;100.00;100205.28;5080994;28;20059;-51
2022/06/12 01:12:43;;;;;;;7.28;5.15;;;;;;;14.38;100.00;100200.88;5085252;28;20035;-53
2022/06/12 01:15:34;;;;;;;9.85;6.32;;;;;;;14.42;100.00;100201.63;5084863;28;20033;-53
2022/06/12 01:18:23;;;;;;;10.90;6.65;;;;;;;14.30;100.00;100199.38;5085130;28;20120;-53
2022/06/12 01:21:47;;;;;;;8.20;6.38;;;;;;;14.27;100.00;100195.97;5087136;28;20051;-53
2022/06/12 01:24:57;;;;;;;10.95;6.50;;;;;;;14.18;100.00;100195.41;5084382;28;20051;-53
2022/06/12 01:28:01;;;;;;;9.70;6.93;;;;;;;13.98;100.00;100196.94;5087534;28;20051;-51
2022/06/12 01:31:00;;;;;;;;;;;;;;;14.11;100.00;100184.22;5086169;28;20040;-52
2022/06/12 01:34:11;;;;;;;10.13;5.88;;;;;;;14.06;100.00;100187.91;5082169;28;19924;-53
2022/06/12 01:37:01;;;;;;;9.63;6.22;;;;;;;13.94;100.00;100186.53;5085034;28;20392;-53
2022/06/12 01:40:18;;;;;;;7.93;5.60;;;;;;;13.99;100.00;100190.75;5086296;28;20044;-53
2022/06/12 01:43:24;;;;;;;8.65;5.28;;;;;;;13.96;100.00;100185.59;5082215;28;20081;-52
2022/06/12 01:46:42;;;;;;;5.60;4.85;;;;;;;13.87;100.00;100183.25;5082568;28;20580;-51
2022/06/12 01:49:45;;;;;;;6.45;5.00;;;;;;;13.87;100.00;100185.88;5087405;28;20059;-54
2022/06/12 01:53:06;;;;;;;;;;;;;;;13.89;100.00;100191.97;5085149;28;20040;-54
2022/06/12 01:56:17;;;;;;;7.15;4.75;;;;;;;13.84;100.00;100187.75;5026229;28;20697;-53
2022/06/12 01:59:21;;;;;;;6.13;4.95;;;;;;;13.72;100.00;100189.88;5084039;28;20453;-51
2022/06/12 02:02:25;;;;;;;9.70;5.20;;;;;;;13.76;100.00;100182.75;5072388;28;20071;-52
2022/06/12 02:05:20;;;;;;;7.40;4.80;;;;;;;13.89;100.00;100189.34;5083227;28;20090;-53
2022/06/12 02:08:16;;;;;;;6.78;4.75;;;;;;;13.93;100.00;100192.72;5084972;28;20044;-54
2022/06/12 02:14:36;;;;;;;8.23;5.00;;;;;;;14.11;100.00;100186.00;5085159;28;20051;-51
2022/06/12 02:17:29;;;;;;;5.53;4.28;;;;;;;14.20;100.00;100189.19;5085876;28;20386;-54
2022/06/12 02:20:18;;;;;;;6.07;4.20;;;;;;;14.24;100.00;100179.41;5083830;28;20059;-54
2022/06/12 02:23:11;;;;;;;5.32;4.38;;;;;;;14.26;100.00;100181.06;5082528;28;20059;-53
2022/06/12 02:25:57;;;;;;;6.28;4.25;;;;;;;14.27;100.00;100169.63;5084218;28;20487;-54
2022/06/12 02:29:00;;;;;;;5.63;4.35;;;;;;;14.32;100.00;100171.22;5085143;28;20043;-54
2022/06/12 02:31:48;;;;;;;5.30;4.80;;;;;;;14.31;100.00;100173.00;5086081;28;20050;-52
2022/06/12 02:34:38;;;;;;;7.40;4.75;;;;;;;14.36;100.00;100171.06;5082718;28;20712;-55
2022/06/12 02:37:27;;;;;;;7.85;5.50;;;;;;;14.40;100.00;100174.47;5086192;28;20390;-54
2022/06/12 02:40:19;;;;;;;7.70;5.03;;;;;;;14.37;100.00;100172.81;5085378;28;20055;-52
2022/06/12 02:43:14;;;;;;;6.93;4.75;;;;;;;14.42;100.00;100168.22;5083975;28;20093;-54
2022/06/12 02:46:11;;;;;;;7.72;5.07;;;;;;;14.38;100.00;100169.25;5086776;28;20044;-52
2022/06/12 02:48:56;;;;;;;6.10;5.00;;;;;;;14.37;100.00;100158.78;5086081;28;20505;-51
2022/06/12 02:51:46;;;;;;;5.07;4.47;;;;;;;14.51;100.00;100166.22;5084737;28;20126;-51
2022/06/12 02:54:33;;;;;;;7.53;5.22;;;;;;;14.55;100.00;100166.03;5084085;28;20390;-54
2022/06/12 02:57:34;;;;;;;6.53;4.90;;;;;;;14.59;100.00;100158.88;5082226;28;20047;-53
2022/06/12 03:00:24;;;;;;;5.90;4.88;;;;;;;14.64;100.00;100164.84;5083315;28;20101;-55
2022/06/12 03:03:16;;;;;;;7.72;4.60;;;;;;;14.69;100.00;100169.06;5084650;28;20044;-53
2022/06/12 03:06:02;;;;;;;5.22;4.72;;;;;;;14.76;100.00;100169.69;5084142;28;20040;-54
2022/06/12 03:08:50;;;;;;;6.25;4.38;;;;;;;14.85;100.00;100168.47;5083207;28;20539;-54
2022/06/12 03:11:40;;;;;;;6.15;4.07;;;;;;;14.81;100.00;100165.09;5083373;28;20138;-54
2022/06/12 03:14:25;;;;;;;6.45;3.92;;;;;;;14.86;100.00;100162.31;5081785;28;20059;-53
2022/06/12 03:17:10;;;;;;;8.15;4.13;;;;;;;14.80;100.00;100157.25;5083986;28;20039;-51
2022/06/12 03:19:56;;;;;;;4.45;3.60;;;;;;;14.92;100.00;100159.44;5082609;28;20071;-51
2022/06/12 03:22:53;;;;;;;4.38;3.17;;;;;;;14.92;100.00;100157.66;5081707;28;20047;-55
2022/06/12 03:25:50;;;;;;;3.85;3.45;;;;;;;15.10;100.00;100164.00;5079987;28;20048;-53
2022/06/12 03:28:51;;;;;;;4.50;3.63;;;;;;;15.07;100.00;100161.47;5084913;28;20086;-53
2022/06/12 03:31:50;;;;;;;6.03;3.58;;;;;;;15.06;100.00;100156.28;5083512;28;20054;-53
2022/06/12 03:35:10;;;;;;;6.57;3.55;;;;;;;15.19;100.00;100157.53;5071187;28;20168;-54
2022/06/12 03:38:28;;;;;;;8.48;3.53;;;;;;;15.25;100.00;100154.66;5005302;28;20242;-55
2022/06/12 03:41:18;;;;;;;4.72;3.53;;;;;;;15.12;100.00;100151.63;5086792;28;20050;-52
2022/06/12 03:44:43;;;;;;;9.13;4.03;;;;;;;15.27;100.00;100154.59;5085279;28;20046;-54
2022/06/12 03:47:51;;;;;;;5.15;3.55;;;;;;;15.42;100.00;100159.25;5068934;28;20410;-54
2022/06/12 03:50:44;;;;;;;4.60;4.10;;;;;;;15.48;100.00;100160.81;5086322;28;20040;-52
2022/06/12 03:53:40;;;;;;;4.55;3.78;;;;;;;15.46;100.00;100158.22;5081786;28;20150;-55
2022/06/12 03:59:54;;;;;;;6.28;3.80;;;;;;;15.57;100.00;100161.31;5081968;28;20478;-54
2022/06/12 04:02:41;;;;;;;5.50;3.42;;;;;;;15.69;100.00;100165.25;5084654;28;20101;-52
2022/06/12 04:05:33;;;;;;;4.32;3.40;;;;;;;15.73;100.00;100165.97;5084542;28;20059;-55
2022/06/12 04:08:21;;;;;;;4.93;3.57;;;;;;;15.74;100.00;100167.72;5082527;28;20051;-54
2022/06/12 04:11:09;;;;;;;3.25;2.95;;;;;;;15.76;100.00;100166.75;5083205;28;20058;-55
2022/06/12 04:13:56;;;;;;;5.78;3.58;;;;;;;15.87;100.00;100163.66;5084494;28;20105;-54
2022/06/12 04:16:46;;;;;;;10.02;4.88;;;;;;;15.89;100.00;100162.69;5084587;28;20125;-53
2022/06/12 04:19:58;;;;;;;4.57;3.47;;;;;;;15.77;100.00;100159.69;5082609;28;20105;-53
2022/06/12 04:22:48;;;;;;;5.65;3.72;;;;;;;15.93;100.00;100158.13;5084344;28;20141;-52
2022/06/12 04:25:48;;;;;;;5.55;3.40;;;;;;;16.06;100.00;100163.75;5083991;28;20105;-53
2022/06/12 04:28:36;;;;;;;3.97;3.25;;;;;;;16.14;100.00;100161.63;5085733;28;20051;-52
2022/06/12 04:31:20;;;;;;;7.72;3.47;;;;;;;16.20;100.00;100171.94;5085666;28;20055;-52
2022/06/12 04:34:07;;;;;;;5.93;3.65;;;;;;;16.35;100.00;100165.16;5085275;28;20048;-53
2022/06/12 04:36:58;;;;;;;5.78;3.22;;;;;;;16.25;100.00;100163.81;5085080;28;20036;-55
2022/06/12 04:39:43;;;;;;;5.85;4.03;;;;;;;16.27;100.00;100168.09;5084382;28;20051;-55
2022/06/12 04:42:31;;;;;;;4.20;3.13;;;;;;;16.31;100.00;100167.06;5084950;28;20097;-55
2022/06/12 04:45:15;;;;;;;4.78;3.58;;;;;;;16.38;100.00;100174.72;5083089;28;20124;-54
2022/06/12 04:48:03;;;;;;;4.32;3.47;;;;;;;16.40;100.00;100170.22;5089108;28;20055;-55
2022/06/12 04:50:47;;;;;;;6.70;3.67;;;;;;;16.44;100.00;100169.16;5087947;28;20097;-54
2022/06/12 04:53:33;;;;;;;4.43;3.58;;;;;;;16.47;100.00;100169.03;5086970;28;20047;-54
2022/06/12 04:56:20;;;;;;;6.50;4.40;;;;;;;16.49;100.00;100172.47;5086633;28;20588;-51
2022/06/12 04:59:07;;;;;;;5.47;4.28;;;;;;;16.49;100.00;100175.97;5089298;28;20047;-53
2022/06/12 05:01:51;;;;;;;4.20;3.53;;;;;;;16.58;100.00;100175.59;5087844;28;20105;-52
2022/06/12 05:04:37;;;;;;;6.30;3.90;;;;;;;16.86;100.00;100170.88;5089288;28;20075;-53
2022/06/12 05:07:21;;;;;;;5.28;4.30;;;;;;;16.92;100.00;100178.53;5089907;28;20056;-52
2022/06/12 05:10:06;;;;;;;5.00;4.15;;;;;;;17.08;100.00;100176.06;5086660;28;20048;-53
2022/06/12 05:12:51;;;;;;;3.60;3.30;;;;;;;17.09;100.00;100185.69;5085223;28;20089;-53
2022/06/12 05:15:36;;;;;;;4.15;3.75;;;;;;;17.19;100.00;100179.94;5087425;28;20098;-54
2022/06/12 05:18:20;;;;;;;6.97;3.53;;;;;;;17.22;100.00;100178.91;5088191;28;20044;-55
2022/06/12 05:21:04;;;;;;;6.70;4.15;;;;;;;17.28;100.00;100178.63;5085440;28;20382;-52
2022/06/12 05:23:48;;;;;;;5.35;3.75;;;;;;;17.28;100.00;100174.19;5087922;28;20055;-53
2022/06/12 05:26:34;;;;;;;5.43;3.60;;;;;;;17.59;100.00;100174.53;5086286;28;20689;-54
2022/06/12 05:29:24;;;;;;;7.70;4.35;;;;;;;17.70;100.00;100177.50;5088502;28;20154;-54
2022/06/12 05:32:13;;;;;;;6.38;3.95;;;;;;;17.94;100.00;100171.06;5084449;28;20052;-55
2022/06/12 05:34:57;;;;;;;4.85;4.25;;;;;;;17.93;100.00;100177.25;5087391;28;20071;-53
2022/06/12 05:37:42;;;;;;;4.68;3.38;;;;;;;18.42;100.00;100173.91;5087067;28;20541;-54
2022/06/12 05:40:37;;;;;;;3.95;3.55;;;;;;;19.29;100.00;100166.63;5084231;28;20048;-56
2022/06/12 05:43:22;;;;;;;6.38;4.28;;;;;;;18.69;100.00;100167.19;5068083;28;20048;-54
2022/06/12 05:46:09;;;;;;;6.20;3.90;;;;;;;19.07;100.00;100161.63;5086441;28;20095;-53
2022/06/12 05:48:54;;;;;;;11.18;4.13;;;;;;;18.84;100.00;100168.19;5086102;28;20059;-55
2022/06/12 05:51:38;;;;;;;7.57;3.47;;;;;;;19.00;100.00;100170.88;5081924;28;20052;-55
2022/06/12 05:54:22;;;;;;;7.43;3.20;;;;;;;19.31;100.00;100161.25;5084657;28;20109;-53
2022/06/12 05:57:07;;;;;;;4.95;3.03;;;;;;;19.29;100.00;100158.66;5081945;28;20054;-56
2022/06/12 05:59:51;;;;;;;5.72;3.30;;;;;;;19.57;100.00;100163.28;5081738;28;20055;-56
2022/06/12 06:02:38;;;;;;;5.93;3.33;;;;;;;19.80;100.00;100163.81;5082079;28;20091;-54
2022/06/12 06:05:23;;;;;;;3.85;3.10;;;;;;;20.42;100.00;100163.72;5084210;28;20093;-55
2022/06/12 06:08:08;;;;;;;4.75;3.33;;;;;;;20.29;100.00;100172.41;5081251;28;20395;-55
2022/06/12 06:10:53;;;;;;;4.18;3.15;;;;;;;20.55;100.00;100178.00;5078912;28;20067;-55
2022/06/12 06:13:38;;;;;;;7.60;2.80;;;;;;;20.86;100.00;100166.31;5077071;28;20391;-56
2022/06/12 06:16:22;;;;;;;5.55;3.03;;;;;;;20.19;100.00;100170.41;5078070;28;20374;-56
2022/06/12 06:19:08;;;;;;;5.57;2.40;;;;;;;21.03;100.00;100167.97;5075407;28;20098;-55
2022/06/12 06:21:53;;;;;;;3.90;2.90;;;;;;;20.66;100.00;100170.22;5073801;28;20072;-54
2022/06/12 06:24:37;;;;;;;3.83;2.50;;;;;;;20.93;100.00;100173.00;5077648;28;20051;-54
2022/06/12 06:27:22;;;;;;;3.83;2.78;;;;;;;21.47;100.00;100167.81;5077727;28;20166;-57
2022/06/12 06:30:07;;;;;;;5.00;3.85;;;;;;;22.01;100.00;100163.44;5080633;28;20047;-55
2022/06/12 06:32:52;;;;;;;6.82;4.82;;;;;;;21.30;100.00;100165.34;5082162;28;20058;-56
2022/06/12 06:35:38;;;;;;;4.28;3.40;;;;;;;21.62;100.00;100167.78;5081505;28;20055;-55
2022/06/12 06:38:22;;;;;;;5.10;2.97;;;;;;;21.74;100.00;100172.28;5083641;28;20078;-55
2022/06/12 06:41:06;;;;;;;4.82;2.92;;;;;;;21.76;100.00;100169.53;5080257;28;20055;-55
2022/06/12 06:46:54;;;;;;;3.97;2.47;;;;;;;22.07;100.00;100173.69;5081411;28;20044;-54
2022/06/12 06:49:39;;;;;;;4.85;3.05;;;;;;;22.43;100.00;100183.72;5082678;28;20055;-55
2022/06/12 06:52:23;;;;;;;3.78;2.40;;;;;;;22.52;100.00;100179.53;5084822;28;20528;-56
2022/06/12 06:55:09;;;;;;;4.97;3.03;;;;;;;21.82;100.00;100179.78;5084608;28;20051;-56
2022/06/12 06:57:54;;;;;;;4.75;2.40;;;;;;;22.34;100.00;100171.84;5082094;28;20114;-55
2022/06/12 07:00:39;;;;;;;4.25;2.95;;;;;;;23.43;100.00;100177.56;5083687;28;20041;-55
2022/06/12 07:03:24;;;;;;;4.93;2.92;;;;;;;24.26;100.00;100180.28;5082215;28;20100;-54
2022/06/12 07:06:10;;;;;;;3.83;2.42;;;;;;;24.54;100.00;100180.06;5083276;28;20059;-55
2022/06/12 07:08:55;;;;;;;6.22;3.50;;;;;;;24.53;100.00;100173.81;5081293;28;20440;-56
2022/06/12 07:11:40;;;;;;;3.55;2.65;;;;;;;23.98;100.00;100181.56;5081092;28;20112;-56
2022/06/12 07:14:25;;;;;;;5.07;2.53;;;;;;;24.45;100.00;100187.81;5077433;28;20052;-55
2022/06/12 07:17:11;;;;;;;4.40;2.72;;;;;;;24.17;100.00;100182.81;5078449;28;20051;-55
2022/06/12 07:19:55;;;;;;;6.93;2.20;;;;;;;23.68;100.00;100179.31;5081319;28;20394;-56
2022/06/12 07:22:40;;;;;;;6.18;2.45;;;;;;;23.93;100.00;100183.72;5085051;28;20059;-55
2022/06/12 07:25:25;;;;;;;4.25;2.38;;;;;;;23.89;100.00;100182.25;5084560;28;20074;-55
2022/06/12 07:28:10;;;;;;;3.83;2.70;;;;;;;23.69;100.00;100170.34;5079482;28;20047;-56
2022/06/12 07:30:56;;;;;;;9.18;2.80;;;;;;;23.88;100.00;100172.47;5082771;28;20148;-56
2022/06/12 07:33:41;;;;;;;3.22;2.10;;;;;;;23.83;100.00;100184.50;5084428;28;20082;-55
2022/06/12 07:36:26;;;;;;;5.38;2.42;;;;;;;23.89;100.00;100176.88;5082213;28;20048;-55
2022/06/12 07:39:15;;;;;;;5.43;2.35;;;;;;;23.91;100.00;100174.94;5081791;28;20070;-55
2022/06/12 07:42:00;;;;;;;4.68;2.50;;;;;;;23.60;100.00;100179.00;5083849;28;20098;-55
2022/06/12 07:44:44;;;;;;;3.58;2.00;;;;;;;23.62;100.00;100169.03;5071213;28;20132;-54
2022/06/12 07:47:29;;;;;;;4.35;2.15;;;;;;;23.98;100.00;100170.84;5068028;28;20046;-55
2022/06/12 07:50:15;;;;;;;3.90;2.42;;;;;;;24.51;100.00;100175.78;5081790;28;20065;-55
2022/06/12 07:52:59;;;;;;;2.92;1.88;;;;;;;24.87;100.00;100171.19;5081158;28;20527;-53
2022/06/12 07:55:44;;;;;;;4.55;2.30;;;;;;;24.90;100.00;100166.44;5082164;28;20044;-55
2022/06/12 07:58:29;;;;;;;4.80;2.42;;;;;;;26.61;100.00;100169.38;5083663;28;20170;-55
2022/06/12 08:01:23;;;;;;;4.75;2.20;;;;;;;25.11;100.00;100169.22;5081036;28;20063;-53
2022/06/12 08:04:09;;;;;;;5.05;1.77;;;;;;;25.55;100.00;100170.19;5079575;28;20044;-55
2022/06/12 08:06:54;;;;;;;3.42;1.85;;;;;;;25.53;100.00;100168.59;5081947;28;20048;-56
2022/06/12 08:09:38;;;;;;;9.25;6.38;;;;;;;26.85;100.00;100174.47;5060721;28;20395;-55
2022/06/12 08:12:23;;;;;;;4.55;2.25;;;;;;;27.63;78.10;100172.91;5077717;28;20071;-54
2022/06/12 08:15:11;;;;;;;4.70;1.50;;;;;;;27.97;71.61;100177.91;5078894;28;20136;-54
2022/06/12 08:17:57;;;;;;;1.92;1.25;;;;;;;27.94;70.67;100176.34;5077972;28;20059;-54
2022/06/12 08:20:45;;;;;;;3.50;1.27;;;;;;;27.88;64.87;100176.91;5076421;28;20094;-53
2022/06/12 08:23:37;;;;;;;2.03;1.00;;;;;;;27.85;66.60;100173.66;5077230;28;20049;-54
2022/06/12 08:26:27;;;;;;;1.00;0.75;;;;;;;27.44;70.16;100171.03;5074827;28;20127;-55
2022/06/12 08:29:13;;;;;;;2.95;1.35;;;;;;;26.65;68.58;100172.66;5075377;28;20040;-55
2022/06/12 08:32:01;;;;;;;1.75;0.95;;;;;;;26.91;71.46;100175.75;5077164;28;20117;-54
2022/06/12 08:34:58;;;;;;;1.15;0.70;;;;;;;26.83;68.35;100165.69;5079916;28;20406;-55
2022/06/12 08:37:43;;;;;;;4.85;2.95;;;;;;;26.64;71.07;100169.13;5078275;28;20038;-54
2022/06/12 08:40:37;;;;;;;2.83;1.70;;;;;;;26.89;74.46;100170.53;5079892;28;20036;-54
2022/06/12 08:43:37;;;;;;;2.50;1.20;;;;;;;25.71;71.98;100168.94;5079685;28;20102;-54
2022/06/12 08:46:32;;;;;;;3.63;1.33;;;;;;;26.06;72.22;100166.00;5082081;28;20047;-55
2022/06/12 08:49:23;;;;;;;1.85;1.27;;;;;;;26.62;72.77;100176.47;5080066;28;20435;-54
2022/06/12 08:52:21;;;;;;;1.70;1.23;;;;;;;26.13;74.21;100166.34;5079754;28;20513;-54
2022/06/12 08:55:45;;;;;;;2.38;1.20;;;;;;;26.73;70.11;100162.09;5079915;28;20047;-54
2022/06/12 08:58:41;;;;;;;2.22;1.17;;;;;;;26.31;72.81;100164.78;5080872;28;20052;-53
2022/06/12 09:01:25;;;;;;;1.35;1.20;;;;;;;26.41;72.77;100165.69;5080159;28;20135;-54
2022/06/12 09:04:16;;;;;;;1.80;1.38;;;;;;;27.14;68.26;100160.34;5076638;28;20678;-53
2022/06/12 09:07:12;;;;;;;3.47;1.20;;;;;;;27.58;64.78;100160.88;5067951;28;20051;-54
2022/06/12 09:10:04;;;;;;;1.35;1.02;;;;;;;28.64;65.84;100150.09;5081783;28;20493;-53
2022/06/12 09:12:58;;;;;;;2.78;1.17;;;;;;;29.43;62.80;100135.25;5083838;28;20134;-54
2022/06/12 09:15:49;;;;;;;2.42;1.20;;;;;;;28.25;65.67;100146.59;5084312;28;20505;-54
2022/06/12 09:18:47;;;;;;;1.58;1.20;;;;;;;27.74;65.86;100140.50;5083719;28;20091;-54
2022/06/12 09:21:51;;;;;;;2.30;1.00;;;;;;;28.80;63.98;100130.59;5082137;28;20044;-54
2022/06/12 09:25:00;;;;;;;1.90;0.90;;;;;;;28.97;62.06;100138.91;5084171;28;20475;-53
2022/06/12 09:27:59;;;;;;;2.03;1.17;;;;;;;28.18;62.31;100134.72;5084908;28;20051;-53
2022/06/12 09:30:53;;;;;;;0.90;0.70;;;;;;;27.82;61.03;100129.06;5068320;28;20043;-54
2022/06/12 09:33:49;;;;;;;1.75;0.77;;;;;;;29.19;59.98;100119.66;5088569;28;20048;-54
2022/06/12 09:36:40;;;;;;;1.95;1.10;;;;;;;29.09;61.14;100110.78;5085799;28;20093;-54
2022/06/12 09:39:54;;;;;;;2.50;0.80;;;;;;;29.54;60.91;100120.69;5086163;28;20066;-54
2022/06/12 09:42:56;;;;;;;5.32;0.98;;;;;;;29.19;56.02;100118.81;5086404;28;20039;-54
2022/06/12 09:46:00;;;;;;;3.70;1.23;;;;;;;29.66;56.51;100106.00;5086323;28;20055;-54
2022/06/12 09:49:23;;;;;;;1.45;0.75;;;;;;;29.53;56.20;100098.28;5086900;28;20075;-54
2022/06/12 09:52:29;;;;;;;0.73;0.32;;;;;;;29.80;52.20;100097.41;5087384;28;20055;-53
2022/06/12 09:55:27;;;;;;;1.95;0.50;;;;;;;28.09;57.84;100089.81;5083079;28;20042;-54
2022/06/12 09:58:20;;;;;;;1.70;0.73;;;;;;;29.11;55.45;100090.75;5084820;28;20090;-54
2022/06/12 10:01:13;;;;;;;5.10;0.60;;;;;;;29.07;54.78;100088.50;5078643;28;20505;-54
2022/06/12 10:04:17;;;;;;;1.70;0.50;;;;;;;29.32;52.90;100090.47;5079865;28;20530;-55
2022/06/12 10:07:08;;;;;;;0.82;0.63;;;;;;;29.05;53.79;100095.88;5080444;28;20046;-52
2022/06/12 10:10:04;;;;;;;1.98;0.60;;;;;;;29.41;51.85;100091.41;5078146;28;20049;-54
2022/06/12 10:12:53;;;;;;;2.33;0.50;;;;;;;29.40;56.14;100091.56;5080294;28;20039;-55
2022/06/12 10:15:43;;;;;;;0.90;0.60;;;;;;;29.36;52.91;100088.31;5082103;28;20043;-55
2022/06/12 10:18:43;;;;;;;2.33;0.60;;;;;;;30.13;49.13;100089.56;5080008;28;20040;-57
2022/06/12 10:21:32;;;;;;;3.03;0.77;;;;;;;28.19;52.47;100086.09;5080042;28;20048;-53
2022/06/12 10:24:17;;;;;;;2.60;0.90;;;;;;;29.31;50.71;100077.13;5079326;28;20398;-55
2022/06/12 10:27:09;;;;;;;2.40;0.68;;;;;;;29.51;48.80;100077.84;5079052;28;20169;-53
2022/06/12 10:30:03;;;;;;;0.77;0.40;;;;;;;30.85;45.13;100075.84;5089003;28;20050;-57
2022/06/12 10:32:54;;;;;;;1.23;0.80;;;;;;;30.20;48.64;100069.03;5084617;28;20051;-54
2022/06/12 10:35:56;;;;;;;1.73;0.80;;;;;;;29.44;51.73;100066.81;5087561;28;20075;-55
2022/06/12 10:38:40;;;;;;;1.27;0.80;;;;;;;30.18;52.84;100067.47;5085484;28;20114;-53
2022/06/12 10:41:28;;;;;;;0.82;0.60;;;;;;;30.42;45.44;100067.66;5086565;28;20044;-53
2022/06/12 10:44:28;;;;;;;1.30;0.50;;;;;;;29.93;45.57;100061.91;5085209;28;20104;-54
2022/06/12 10:47:27;;;;;;;2.35;0.60;;;;;;;30.49;45.37;100059.75;5083953;28;20090;-56
2022/06/12 10:50:15;;;;;;;1.50;0.43;;;;;;;31.02;47.24;100061.34;5081845;28;20075;-55
2022/06/12 10:53:08;;;;;;;1.80;0.70;;;;;;;30.96;47.34;100051.19;5082641;28;20121;-57
2022/06/12 10:56:25;;;;;;;2.53;0.60;;;;;;;30.80;48.32;100057.38;5082920;28;20052;-55
2022/06/12 10:59:26;;;;;;;2.03;0.80;;;;;;;29.44;50.99;100055.19;5078593;28;20067;-57
2022/06/12 11:02:49;;;;;;;1.60;0.47;;;;;;;31.07;50.31;100048.19;5083384;28;20071;-56
2022/06/12 11:06:02;;;;;;;1.05;0.50;;;;;;;30.65;49.95;100049.03;5080759;28;20092;-57
2022/06/12 11:08:56;;;;;;;0.88;0.50;;;;;;;31.25;45.35;100049.91;5085425;28;20075;-56
2022/06/12 11:11:57;;;;;;;1.55;0.57;;;;;;;30.74;49.84;100049.88;5082807;28;20048;-56
2022/06/12 11:15:07;;;;;;;1.27;0.63;;;;;;;30.48;48.99;100044.53;5081903;28;20056;-56
2022/06/12 11:18:18;;;;;;;1.70;0.40;;;;;;;30.08;48.97;100042.41;5084009;28;20047;-56
2022/06/12 11:21:36;;;;;;;2.90;0.50;;;;;;;30.45;49.30;100029.50;5082839;28;20036;-54
2022/06/12 11:24:43;;;;;;;1.98;0.52;;;;;;;29.88;48.61;100031.81;5082583;28;20178;-55
2022/06/12 11:27:41;;;;;;;1.67;0.40;;;;;;;30.32;45.37;100026.38;5082566;28;20366;-54
2022/06/12 11:30:28;;;;;;;1.85;0.50;;;;;;;29.89;47.27;100022.72;5082526;28;20607;-55
2022/06/12 11:33:42;;;;;;;1.83;0.50;;;;;;;30.59;45.21;100013.69;5084834;28;20394;-55
2022/06/12 11:36:30;;;;;;;1.60;0.68;;;;;;;30.84;48.35;100011.94;5085039;28;20050;-55
2022/06/12 11:39:31;;;;;;;1.08;0.45;;;;;;;30.41;45.61;100017.31;5083460;28;20051;-56
2022/06/12 11:42:51;;;;;;;1.63;0.52;;;;;;;29.66;44.17;100014.28;5080060;28;20125;-56
2022/06/12 11:45:42;;;;;;;1.05;0.40;;;;;;;30.64;45.94;100012.19;5055398;28;20129;-56
2022/06/12 11:49:03;;;;;;;1.92;0.32;;;;;;;29.35;44.00;100009.28;5083021;28;20051;-56
2022/06/12 11:51:54;;;;;;;;;;;;;;;30.50;45.36;100007.41;5083476;28;20044;-57
2022/06/12 11:55:00;;;;;;;1.27;0.38;;;;;;;29.43;45.14;100002.25;5079321;28;19970;-52
2022/06/12 11:57:53;;;;;;;0.75;0.20;;;;;;;29.24;49.35;100000.53;5081845;28;20082;-54
2022/06/12 12:00:37;;;;;;;2.83;0.40;;;;;;;29.23;49.31;99994.31;5080170;28;20189;-53
2022/06/12 12:03:58;;;;;;;0.63;0.30;;;;;;;29.77;46.57;99994.31;5079929;28;20101;-53
2022/06/12 12:06:57;;;;;;;2.25;0.50;;;;;;;28.77;46.02;99988.09;5077367;28;20380;-52
2022/06/12 12:09:57;;;;;;;0.82;0.40;;;;;;;29.84;43.73;99989.97;5075628;28;20128;-52
2022/06/12 12:12:47;;;;;;;1.38;0.52;;;;;;;30.25;47.57;99991.06;5075665;28;20049;-53
2022/06/12 12:15:40;;;;;;;1.27;0.50;;;;;;;30.71;44.78;99990.75;5076145;28;20036;-52
2022/06/12 12:18:41;;;;;;;3.63;0.50;;;;;;;30.52;46.76;99975.69;5077655;28;20043;-53
2022/06/12 12:21:40;;;;;;;1.52;0.50;;;;;;;30.24;47.83;99986.69;5075582;28;20101;-54
2022/06/12 12:24:33;;;;;;;0.75;0.20;;;;;;;31.13;45.00;99989.88;5076879;28;20058;-54
2022/06/12 12:27:39;;;;;;;1.20;0.30;;;;;;;30.55;41.95;99978.06;5076098;28;20098;-54
2022/06/12 12:30:40;;;;;;;0.60;0.15;;;;;;;30.49;44.12;99978.69;5076480;28;20047;-52
2022/06/12 12:33:25;;;;;;;2.00;0.40;;;;;;;29.90;45.50;99975.84;5076632;28;20082;-53
2022/06/12 12:42:34;;;;;;;1.67;0.45;;;;;;;30.38;42.21;99966.31;5078730;28;20047;-54
2022/06/12 12:45:19;;;;;;;3.08;0.40;;;;;;;31.07;44.42;99963.50;5077375;28;20048;-53
2022/06/12 12:48:13;;;;;;;2.15;0.75;;;;;;;31.27;40.11;99959.47;5085277;28;20040;-54
2022/06/12 12:50:57;;;;;;;1.33;0.40;;;;;;;31.02;42.00;99953.19;5080383;28;20360;-53
2022/06/12 12:53:42;;;;;;;1.15;0.38;;;;;;;29.95;45.02;99959.16;5079828;28;20051;-53
2022/06/12 12:56:30;;;;;;;0.68;0.22;;;;;;;29.43;46.83;99956.38;5078276;28;20152;-52
2022/06/12 12:59:14;;;;;;;0.73;0.30;;;;;;;28.63;47.21;99951.72;5083466;28;20044;-53
2022/06/12 13:02:15;;;;;;;2.75;0.40;;;;;;;28.63;47.28;99942.78;5079243;28;20055;-53
2022/06/12 13:05:19;;;;;;;8.05;0.60;;;;;;;28.26;48.82;99946.34;5073809;28;20045;-53
2022/06/12 13:08:31;;;;;;;3.25;0.30;;;;;;;29.40;47.96;99951.31;5080472;28;20044;-53
2022/06/12 13:12:04;;;;;;;1.05;0.30;;;;;;;28.92;48.45;99945.28;5066776;28;20044;-52
2022/06/12 13:15:27;;;;;;;0.68;0.30;;;;;;;27.60;46.33;99943.72;5079308;28;20048;-56
2022/06/12 13:18:48;;;;;;;2.75;0.30;;;;;;;28.60;48.89;99940.38;5056486;28;20082;-54
2022/06/12 13:21:57;;;;;;;1.23;0.30;;;;;;;28.53;46.87;99941.97;5081260;28;20060;-54
2022/06/12 13:24:45;;;;;;;1.15;0.52;;;;;;;28.46;45.79;99941.75;5083360;28;20048;-53
2022/06/12 13:27:35;;;;;;;0.35;0.25;;;;;;;28.26;49.54;99940.97;5081136;28;20078;-55
2022/06/12 13:30:40;;;;;;;22.23;18.30;;;;;;;28.71;47.99;99942.88;5080657;28;20086;-54
2022/06/12 13:33:28;;;;;;;217.70;137.43;;;;;;;28.06;50.72;99939.34;5080984;28;20040;-53
2022/06/12 13:36:14;;;;;;;43.15;29.35;;;;;;;28.13;52.04;99927.00;5079851;28;20070;-54
2022/06/12 13:39:05;;;;;;;17.00;14.45;;;;;;;28.26;50.18;99935.56;5078618;28;20094;-53
2022/06/12 13:41:56;;;;;;;6.40;4.85;;;;;;;28.38;52.64;99922.78;5057197;28;20043;-53